Time;durP1;ratioP1;P1;durP2;ratioP2;P2;SDS_P1;SDS_P2;PMS_P1;PMS_P2;Temp;Humidity;BMP_temperature;BMP_pressure;BME280_temperature;BME280_humidity;BME280_pressure;Samples;Min_cycle;Max_cycle;Signal;HPM_P1;HPM_P2
2023/01/01 00:10:27;;;;;;;;;;;;;;;15.56;71.13;100674.81;20735284;28;19922;-67
2023/01/01 00:20:48;;;;;;;;;;;;;;;15.70;71.05;100678.38;20762673;28;19925;-67
2023/01/01 00:31:11;;;;;;;;;;;;;;;15.48;72.02;100687.41;20753932;28;20384;-67
2023/01/01 00:41:33;;;;;;;;;;;;;;;15.27;73.23;100717.19;20730265;28;19960;-67
2023/01/01 00:51:54;;;;;;;;;;;;;;;15.16;73.21;100724.69;20762188;28;19925;-67
2023/01/01 01:02:16;;;;;;;;;;;;;;;15.43;71.53;100741.56;20748314;28;20015;-68
2023/01/01 01:12:37;;;;;;;;;;;;;;;15.40;69.80;100711.25;20831689;22;19931;-71
2023/01/01 01:22:59;;;;;;;;;;;;;;;15.50;71.48;100724.69;20890319;28;19985;-71
2023/01/01 01:33:20;;;;;;;;;;;;;;;15.42;71.61;100719.88;20881956;28;19921;-72
2023/01/01 01:43:41;;;;;;;;;;;;;;;15.52;70.68;100731.53;20889770;28;20058;-71
2023/01/01 01:54:06;;;;;;;;;;;;;;;15.43;71.44;100767.66;20866443;28;19920;-71
2023/01/01 02:04:28;;;;;;;;;;;;;;;15.40;72.01;100746.94;20868861;28;19970;-71
2023/01/01 02:14:49;;;;;;;;;;;;;;;15.24;71.62;100761.63;20880482;28;19920;-72
2023/01/01 02:25:14;;;;;;;;;;;;;;;15.23;73.27;100757.34;20885278;28;19986;-71
2023/01/01 02:35:38;;;;;;;;;;;;;;;15.06;74.12;100772.06;20883777;28;19924;-71
2023/01/01 02:46:03;;;;;;;;;;;;;;;14.81;75.82;100773.34;20870163;28;19920;-71
2023/01/01 02:56:31;;;;;;;;;;;;;;;14.70;76.34;100781.69;20895040;28;20118;-72
2023/01/01 03:07:13;;;;;;;;;;;;;;;14.80;75.92;100787.28;20899531;28;19970;-71
2023/01/01 03:17:37;;;;;;;;;;;;;;;14.73;76.04;100778.94;20899227;28;19977;-72
2023/01/01 03:28:02;;;;;;;;;;;;;;;14.70;76.58;100786.03;20890703;28;19998;-71
2023/01/01 03:38:29;;;;;;;;;;;;;;;14.79;75.77;100796.88;20891231;28;20329;-71
2023/01/01 03:48:57;;;;;;;;;;;;;;;14.73;75.96;100791.09;20890268;28;19921;-71
2023/01/01 03:59:29;;;;;;;;;;;;;;;14.80;74.73;100789.88;20869906;28;19932;-71
2023/01/01 04:09:51;;;;;;;;;;;;;;;14.87;74.14;100789.50;20889695;28;19921;-71
2023/01/01 04:20:13;;;;;;;;;;;;;;;14.82;74.04;100796.72;20895328;28;20409;-71
2023/01/01 04:30:34;;;;;;;;;;;;;;;15.00;72.66;100795.81;20892941;28;19925;-71
2023/01/01 04:40:58;;;;;;;;;;;;;;;14.93;72.76;100812.69;20894467;28;19916;-72
2023/01/01 04:51:20;;;;;;;;;;;;;;;14.99;72.17;100801.97;20894351;28;19971;-70
2023/01/01 05:01:41;;;;;;;;;;;;;;;15.27;68.83;100813.66;20890055;28;19986;-70
2023/01/01 05:12:03;;;;;;;;;;;;;;;15.17;69.54;100817.63;20894704;28;19924;-70
2023/01/01 05:22:24;;;;;;;;;;;;;;;15.23;69.54;100846.00;20884520;28;19947;-71
2023/01/01 05:32:46;;;;;;;;;;;;;;;15.29;69.79;100853.53;20870880;28;19970;-71
2023/01/01 05:43:07;;;;;;;;;;;;;;;15.15;70.82;100875.03;20874519;28;19921;-71
2023/01/01 05:53:29;;;;;;;;;;;;;;;15.04;71.69;100898.16;20876128;28;20505;-71
2023/01/01 06:03:52;;;;;;;;;;;;;;;15.01;70.04;100907.00;20889549;28;20372;-70
2023/01/01 06:14:13;;;;;;;;;;;;;;;14.99;69.75;100903.63;20889801;28;19947;-71
2023/01/01 06:24:34;;;;;;;;;;;;;;;15.01;70.43;100906.13;20882540;28;19921;-71
2023/01/01 06:34:59;;;;;;;;;;;;;;;15.04;69.39;100919.00;20870939;28;19951;-72
2023/01/01 06:45:21;;;;;;;;;;;;;;;15.11;67.27;100942.13;20863015;28;20328;-72
2023/01/01 06:55:48;;;;;;;;;;;;;;;15.02;69.25;100966.00;20883143;28;19921;-72
2023/01/01 07:06:17;;;;;;;;;;;;;;;14.96;68.01;100986.31;20880836;28;19966;-71
2023/01/01 07:16:38;;;;;;;;;;;;;;;14.83;67.74;101006.81;20875312;23;19925;-74
2023/01/01 07:26:59;;;;;;;;;;;;;;;14.74;68.44;101048.91;20734621;28;19928;-74
2023/01/01 07:37:25;;;;;;;;;;;;;;;14.62;69.66;101088.53;20744243;28;19975;-73
2023/01/01 07:47:51;;;;;;;;;;;;;;;14.65;68.42;101091.00;20828192;28;19921;-73
2023/01/01 07:58:13;;;;;;;;;;;;;;;14.59;67.98;101109.50;20770272;28;20020;-72
2023/01/01 08:08:34;;;;;;;;;;;;;;;14.57;67.45;101133.91;20746155;28;20048;-71
2023/01/01 08:18:56;;;;;;;;;;;;;;;14.55;67.13;101153.97;20741699;28;19932;-72
2023/01/01 08:29:17;;;;;;;;;;;;;;;14.57;65.72;101184.25;20771107;28;19947;-72
2023/01/01 08:39:39;;;;;;;;;;;;;;;14.59;65.14;101221.50;20791164;28;19925;-72
2023/01/01 08:50:00;;;;;;;;;;;;;;;14.60;65.37;101222.34;20727028;28;19925;-72
2023/01/01 09:00:21;;;;;;;;;;;;;;;14.52;65.33;101245.25;20720751;28;19929;-72
2023/01/01 09:10:43;;;;;;;;;;;;;;;14.53;63.90;101279.03;20732940;28;20361;-72
2023/01/01 09:21:05;;;;;;;;;;;;;;;14.52;63.67;101295.56;20730938;28;19928;-72
2023/01/01 09:31:26;;;;;;;;;;;;;;;14.44;63.46;101310.66;20731088;28;20482;-72
2023/01/01 09:42:06;;;;;;;;;;;;;;;14.40;64.53;101329.91;20751128;28;19925;-71
2023/01/01 09:52:34;;;;;;;;;;;;;;;14.43;64.83;101336.75;20728593;28;20367;-71
2023/01/01 10:03:17;;;;;;;;;;;;;;;14.36;63.60;101349.13;20722356;28;19921;-72
2023/01/01 10:13:43;;;;;;;;;;;;;;;14.29;64.88;101355.47;20728150;28;20222;-71
2023/01/01 10:24:23;;;;;;;;;;;;;;;14.32;64.00;101344.94;20710240;28;20284;-72
2023/01/01 10:34:45;;;;;;;;;;;;;;;14.41;65.14;101346.38;20728985;28;19933;-72
2023/01/01 10:45:14;;;;;;;;;;;;;;;14.31;63.83;101339.81;20718009;28;19925;-72
2023/01/01 10:55:35;;;;;;;;;;;;;;;14.16;66.02;101372.41;20726940;28;19925;-71
2023/01/01 11:06:03;;;;;;;;;;;;;;;14.14;64.84;101384.63;20706857;28;19929;-72
2023/01/01 11:16:26;;;;;;;;;;;;;;;14.13;65.11;101403.78;20694969;28;1102608;-71
2023/01/01 11:26:47;;;;;;;;;;;;;;;14.01;65.81;101419.78;20748493;28;19983;-72
2023/01/01 11:37:27;;;;;;;;;;;;;;;13.98;66.88;101386.94;20739691;28;19960;-72
2023/01/01 11:47:51;;;;;;;;;;;;;;;13.99;66.56;101400.81;20726909;28;20044;-73
2023/01/01 11:58:31;;;;;;;;;;;;;;;14.08;65.22;101444.72;20717782;28;19921;-73
2023/01/01 12:09:12;;;;;;;;;;;;;;;14.17;65.53;101452.22;20734111;28;19925;-77
2023/01/01 12:19:52;;;;;;;;;;;;;;;14.16;66.45;101445.31;20734921;28;19922;-72
2023/01/01 12:30:18;;;;;;;;;;;;;;;14.13;65.89;101442.81;20745689;28;19925;-72
2023/01/01 12:40:50;;;;;;;;;;;;;;;13.97;67.89;101465.88;20733182;28;19925;-72
2023/01/01 12:51:15;;;;;;;;;;;;;;;13.90;67.21;101479.16;20743696;28;19969;-72
2023/01/01 13:01:37;;;;;;;;;;;;;;;13.76;68.48;101463.16;20707051;28;19921;-72
2023/01/01 13:12:13;;;;;;;;;;;;;;;13.80;67.21;101477.78;20730223;28;19929;-71
2023/01/01 13:22:37;;;;;;;;;;;;;;;13.63;68.47;101493.91;20749863;28;20328;-73
2023/01/01 13:33:11;;;;;;;;;;;;;;;13.55;69.16;101471.66;20745254;22;20679;-60
2023/01/01 13:43:33;;;;;;;;;;;;;;;13.54;70.01;101477.75;20810022;28;20003;-60
2023/01/01 13:54:09;;;;;;;;;;;;;;;13.48;70.03;101501.38;20764134;28;19944;-61
2023/01/01 14:04:35;;;;;;;;;;;;;;;13.54;69.99;101517.63;20757799;28;20391;-60
2023/01/01 14:14:57;;;;;;;;;;;;;;;13.42;71.10;101514.56;20791325;28;19987;-60
2023/01/01 14:25:26;;;;;;;;;;;;;;;13.38;71.60;101529.41;20769117;28;19967;-60
2023/01/01 14:35:55;;;;;;;;;;;;;;;13.29;72.23;101531.41;20770940;28;19940;-58
2023/01/01 14:46:18;;;;;;;;;;;;;;;13.26;73.40;101544.50;20763190;28;19921;-59
2023/01/01 14:56:40;;;;;;;;;;;;;;;13.20;73.22;101591.47;20800042;28;20111;-58
2023/01/01 15:07:02;;;;;;;;;;;;;;;13.15;73.96;101590.75;20783898;28;20023;-59
2023/01/01 15:17:24;;;;;;;;;;;;;;;13.09;74.92;101587.41;20779819;28;19977;-59
2023/01/01 15:27:50;;;;;;;;;;;;;;;13.01;76.34;101586.75;20759542;28;19925;-59
2023/01/01 15:38:18;;;;;;;;;;;;;;;12.97;76.39;101581.66;20763661;28;19933;-59
2023/01/01 15:48:50;;;;;;;;;;;;;;;12.97;76.77;101581.66;20800248;28;20278;-59
2023/01/01 15:59:32;;;;;;;;;;;;;;;12.89;78.30;101579.28;20775678;28;20062;-59
2023/01/01 16:09:54;;;;;;;;;;;;;;;12.93;78.31;101575.72;20787361;28;19971;-59
2023/01/01 16:20:20;;;;;;;;;;;;;;;12.92;78.39;101579.22;20798176;28;19933;-58
2023/01/01 16:30:42;;;;;;;;;;;;;;;12.90;78.72;101581.00;20763399;28;19996;-59
2023/01/01 16:41:03;;;;;;;;;;;;;;;12.87;78.59;101591.44;20762134;28;20012;-59
2023/01/01 16:51:28;;;;;;;;;;;;;;;12.85;78.72;101603.66;20794279;28;19924;-59
2023/01/01 17:01:50;;;;;;;;;;;;;;;12.79;79.06;101601.22;20774606;28;19925;-60
2023/01/01 17:12:11;;;;;;;;;;;;;;;12.81;78.96;101602.03;20765920;28;20465;-60
2023/01/01 17:22:33;;;;;;;;;;;;;;;12.83;79.22;101610.63;20770768;28;19929;-59
2023/01/01 17:32:55;;;;;;;;;;;;;;;12.82;78.93;101615.84;20769528;28;19975;-59
2023/01/01 17:43:16;;;;;;;;;;;;;;;12.73;79.97;101580.59;20764669;28;19921;-60
2023/01/01 17:53:38;;;;;;;;;;;;;;;12.75;79.88;101585.75;20777963;28;20438;-59
2023/01/01 18:04:07;;;;;;;;;;;;;;;12.71;79.04;101592.75;20813514;28;19925;-59
2023/01/01 18:14:28;;;;;;;;;;;;;;;12.69;79.67;101589.34;20770400;28;19978;-59
2023/01/01 18:24:50;;;;;;;;;;;;;;;12.70;80.19;101583.28;20762382;28;20003;-59
2023/01/01 18:35:11;;;;;;;;;;;;;;;12.67;81.01;101578.16;20753281;28;19925;-59
2023/01/01 18:45:33;;;;;;;;;;;;;;;12.66;81.39;101566.06;20782540;28;20422;-59
2023/01/01 18:56:11;;;;;;;;;;;;;;;12.66;82.47;101563.47;20747902;28;20304;-59
2023/01/01 19:06:32;;;;;;;;;;;;;;;12.62;82.25;101564.44;20776089;28;20293;-59
2023/01/01 19:16:54;;;;;;;;;;;;;;;12.64;81.26;101564.41;20743403;28;19921;-60
2023/01/01 19:27:17;;;;;;;;;;;;;;;12.66;81.58;101534.91;20754416;28;19920;-60
2023/01/01 19:37:39;;;;;;;;;;;;;;;12.63;82.09;101524.63;20760679;23;19933;-74
2023/01/01 19:48:00;;;;;;;;;;;;;;;12.65;82.42;101522.84;20736185;28;20258;-74
2023/01/01 19:58:22;;;;;;;;;;;;;;;12.60;82.14;101513.47;20672831;28;19921;-73
2023/01/01 20:08:43;;;;;;;;;;;;;;;12.57;82.64;101501.41;20670904;28;19930;-75
2023/01/01 20:19:04;;;;;;;;;;;;;;;12.59;82.38;101475.41;20667768;28;19968;-74
2023/01/01 20:29:27;;;;;;;;;;;;;;;12.60;81.98;101497.91;20687753;28;19991;-70
2023/01/01 20:39:49;;;;;;;;;;;;;;;12.59;81.14;101512.63;20680803;28;19926;-73
2023/01/01 20:50:10;;;;;;;;;;;;;;;12.60;80.39;101511.69;20679900;28;20344;-76
2023/01/01 21:00:31;;;;;;;;;;;;;;;12.66;80.35;101514.13;20671170;28;20309;-70
2023/01/01 21:10:53;;;;;;;;;;;;;;;12.62;80.47;101515.13;20682077;28;19945;-76
2023/01/01 21:21:19;;;;;;;;;;;;;;;12.51;82.45;101509.34;20670974;28;19925;-72
2023/01/01 21:31:41;;;;;;;;;;;;;;;12.46;82.72;101508.63;20654906;28;19925;-72
2023/01/01 21:42:22;;;;;;;;;;;;;;;12.35;84.08;101492.50;20648070;28;19997;-72
2023/01/01 21:52:44;;;;;;;;;;;;;;;12.23;85.59;101451.31;20640050;28;19929;-70
2023/01/01 22:03:14;;;;;;;;;;;;;;;12.21;86.61;101441.84;20649378;28;19921;-70
2023/01/01 22:13:36;;;;;;;;;;;;;;;12.18;87.91;101426.38;20670304;28;20199;-72
2023/01/01 22:23:58;;;;;;;;;;;;;;;12.15;88.14;101401.38;20639204;28;19969;-71
2023/01/01 22:34:21;;;;;;;;;;;;;;;12.12;88.12;101414.44;20645806;28;19976;-71
2023/01/01 22:44:43;;;;;;;;;;;;;;;12.11;89.11;101415.31;20652434;28;19921;-69
2023/01/01 22:55:04;;;;;;;;;;;;;;;12.02;90.14;101392.22;20663774;28;19957;-73
2023/01/01 23:05:26;;;;;;;;;;;;;;;11.90;91.86;101356.25;20664062;28;19933;-69
2023/01/01 23:15:59;;;;;;;;;;;;;;;11.89;92.17;101341.56;20642184;28;19929;-69
2023/01/01 23:26:21;;;;;;;;;;;;;;;11.85;92.97;101327.81;20691874;28;19932;-71
2023/01/01 23:36:43;;;;;;;;;;;;;;;11.83;92.29;101303.66;20674612;28;19976;-70
2023/01/01 23:47:05;;;;;;;;;;;;;;;11.80;93.47;101274.38;20678978;28;19972;-70
2023/01/01 23:57:26;;;;;;;;;;;;;;;11.73;94.30;101254.72;20652326;28;19926;-71
